createdAt,value
2023-02-07T00:01:07.514Z,81.01
2023-02-07T00:02:39.168Z,80.27
2023-02-07T00:04:10.783Z,81.08
2023-02-07T00:05:42.446Z,80.62
2023-02-07T00:07:14.078Z,81.15
2023-02-07T00:08:47.253Z,80.92
2023-02-07T00:10:18.957Z,81.18
2023-02-07T00:11:56.322Z,80.03
2023-02-07T00:13:28.012Z,80.02
2023-02-07T00:14:59.654Z,80.03
2023-02-07T00:16:31.325Z,79.63
2023-02-07T00:18:03.063Z,81.00
2023-02-07T00:19:34.764Z,80.78
2023-02-07T00:21:07.498Z,81.29
2023-02-07T00:22:39.238Z,81.06
2023-02-07T00:24:12.212Z,80.35
2023-02-07T00:25:45.721Z,81.29
2023-02-07T00:27:17.651Z,81.06
2023-02-07T00:28:49.452Z,80.18
2023-02-07T00:30:21.236Z,81.26
2023-02-07T00:31:52.894Z,81.89
2023-02-07T00:33:24.622Z,81.65
2023-02-07T00:34:56.210Z,81.82
2023-02-07T00:36:29.086Z,82.06
2023-02-07T00:38:00.700Z,82.53
2023-02-07T00:39:33.837Z,82.57
2023-02-07T00:41:05.599Z,81.57
2023-02-07T00:42:37.221Z,81.25
2023-02-07T00:44:09.082Z,82.31
2023-02-07T00:45:40.779Z,82.57
2023-02-07T00:47:12.438Z,82.67
2023-02-07T00:48:44.118Z,82.48
2023-02-07T00:50:15.805Z,82.77
2023-02-07T00:51:47.445Z,82.01
2023-02-07T00:53:19.182Z,83.95
2023-02-07T00:54:52.210Z,82.52
2023-02-07T00:56:24.873Z,82.42
2023-02-07T00:57:56.486Z,82.83
2023-02-07T00:59:28.135Z,82.54
2023-02-07T01:01:00.116Z,82.77
2023-02-07T01:02:31.862Z,83.54
2023-02-07T01:04:03.787Z,83.08
2023-02-07T01:05:35.847Z,83.76
2023-02-07T01:07:08.324Z,83.72
2023-02-07T01:08:39.937Z,83.54
2023-02-07T01:10:12.903Z,83.58
2023-02-07T01:11:44.532Z,83.48
2023-02-07T01:13:16.399Z,83.11
2023-02-07T01:14:48.237Z,83.59
2023-02-07T01:16:20.266Z,83.18
2023-02-07T01:17:51.949Z,82.89
2023-02-07T01:19:23.578Z,83.38
2023-02-07T01:20:55.218Z,82.66
2023-02-07T01:22:26.896Z,82.70
2023-02-07T01:23:58.867Z,83.51
2023-02-07T01:25:32.039Z,83.28
2023-02-07T01:27:03.955Z,82.96
2023-02-07T01:28:35.619Z,83.18
2023-02-07T01:30:07.896Z,83.40
2023-02-07T01:31:40.726Z,83.78
2023-02-07T01:33:12.477Z,82.74
2023-02-07T01:34:44.111Z,82.51
2023-02-07T01:36:16.223Z,82.89
2023-02-07T01:37:47.819Z,82.78
2023-02-07T01:39:19.455Z,83.56
2023-02-07T01:40:52.497Z,83.26
2023-02-07T01:42:25.100Z,82.99
2023-02-07T01:43:59.007Z,82.94
2023-02-07T01:45:32.671Z,82.86
2023-02-07T01:47:04.315Z,83.35
2023-02-07T01:48:36.012Z,83.12
2023-02-07T01:50:07.650Z,83.05
2023-02-07T01:51:39.789Z,82.54
2023-02-07T01:53:11.571Z,82.49
2023-02-07T01:54:43.215Z,84.18
2023-02-07T01:56:29.666Z,83.10
2023-02-07T01:58:02.904Z,84.07
2023-02-07T01:59:35.707Z,84.58
2023-02-07T02:01:10.071Z,83.86
2023-02-07T02:02:41.871Z,84.95
2023-02-07T02:04:13.701Z,84.52
2023-02-07T02:05:45.440Z,84.81
2023-02-07T02:07:17.101Z,84.52
2023-02-07T02:08:48.707Z,84.91
2023-02-07T02:10:21.708Z,84.74
2023-02-07T02:12:07.660Z,84.52
2023-02-07T02:13:42.821Z,84.04
2023-02-07T02:15:20.663Z,85.06
2023-02-07T02:16:55.255Z,84.60
2023-02-07T02:18:38.570Z,84.93
2023-02-07T02:20:55.002Z,85.09
2023-02-07T02:22:57.530Z,84.50
2023-02-07T02:24:56.366Z,84.77
2023-02-07T02:26:42.179Z,84.22
2023-02-07T02:28:46.045Z,84.24
2023-02-07T02:30:44.645Z,83.91
2023-02-07T02:32:49.659Z,83.91
2023-02-07T02:34:22.367Z,83.70
2023-02-07T02:35:59.208Z,83.29
2023-02-07T02:37:35.530Z,85.17
2023-02-07T02:39:09.271Z,84.43
2023-02-07T02:40:44.309Z,84.02
2023-02-07T02:42:19.431Z,83.31
2023-02-07T02:43:52.329Z,84.10
2023-02-07T02:45:25.981Z,83.57
2023-02-07T02:47:01.285Z,82.86
2023-02-07T02:48:34.312Z,84.28
2023-02-07T02:50:09.604Z,84.00
2023-02-07T02:51:41.274Z,84.55
2023-02-07T02:53:12.947Z,84.23
2023-02-07T02:54:44.570Z,83.82
2023-02-07T02:56:41.075Z,84.25
2023-02-07T02:58:20.230Z,83.99
2023-02-07T03:00:02.551Z,84.49
2023-02-07T03:01:38.423Z,83.82
2023-02-07T03:03:34.533Z,84.25
2023-02-07T03:05:13.582Z,83.72
2023-02-07T03:06:52.752Z,85.25
2023-02-07T03:08:28.898Z,83.62
2023-02-07T03:10:02.805Z,83.47
2023-02-07T03:11:37.851Z,83.59
2023-02-07T03:13:12.670Z,83.39
2023-02-07T03:14:48.621Z,84.19
2023-02-07T03:16:22.138Z,83.90
2023-02-07T03:17:55.021Z,84.06
2023-02-07T03:19:28.704Z,84.06
2023-02-07T03:21:03.627Z,83.65
2023-02-07T03:22:35.291Z,83.42
2023-02-07T03:24:11.480Z,83.77
2023-02-07T03:25:43.101Z,83.98
2023-02-07T03:27:16.991Z,83.91
2023-02-07T03:28:48.602Z,83.81
2023-02-07T03:30:20.481Z,83.19
2023-02-07T03:31:58.041Z,83.01
2023-02-07T03:33:29.925Z,84.45
2023-02-07T03:35:04.537Z,84.09
2023-02-07T03:36:39.909Z,83.71
2023-02-07T03:38:12.295Z,83.84
2023-02-07T03:39:43.942Z,83.49
2023-02-07T03:41:17.855Z,83.87
2023-02-07T03:42:53.807Z,82.86
2023-02-07T03:44:26.192Z,84.11
2023-02-07T03:45:57.874Z,84.70
2023-02-07T03:47:29.520Z,83.60
2023-02-07T03:49:01.168Z,83.83
2023-02-07T03:50:32.791Z,84.79
2023-02-07T03:52:05.964Z,84.21
2023-02-07T03:53:37.577Z,83.76
2023-02-07T03:55:10.029Z,84.72
2023-02-07T03:56:41.738Z,84.82
2023-02-07T03:58:13.376Z,84.49
2023-02-07T03:59:44.982Z,84.50
2023-02-07T04:01:16.688Z,84.89
2023-02-07T04:02:48.387Z,85.30
2023-02-07T04:04:20.018Z,84.72
2023-02-07T04:05:51.652Z,85.10
2023-02-07T04:07:24.674Z,83.92
2023-02-07T04:08:56.319Z,84.47
2023-02-07T04:10:28.074Z,84.75
2023-02-07T04:11:59.765Z,84.77
2023-02-07T04:13:31.403Z,84.84
2023-02-07T04:15:04.650Z,84.57
2023-02-07T04:16:36.376Z,84.63
2023-02-07T04:18:08.060Z,84.36
2023-02-07T04:19:39.722Z,84.31
2023-02-07T04:21:11.359Z,83.83
2023-02-07T04:22:44.311Z,84.64
2023-02-07T04:24:15.939Z,84.29
2023-02-07T04:25:47.596Z,83.15
2023-02-07T04:27:19.330Z,83.47
2023-02-07T04:28:51.027Z,83.54
2023-02-07T04:30:22.765Z,84.13
2023-02-07T04:31:54.492Z,83.93
2023-02-07T04:33:26.203Z,83.24
2023-02-07T04:34:57.904Z,83.54
2023-02-07T04:36:32.230Z,83.50
2023-02-07T04:38:05.394Z,84.21
2023-02-07T04:39:37.092Z,82.86
2023-02-07T04:41:08.763Z,84.53
2023-02-07T04:42:40.393Z,84.10
2023-02-07T04:44:12.017Z,83.89
2023-02-07T04:45:45.389Z,83.37
2023-02-07T04:47:17.026Z,83.51
2023-02-07T04:48:49.151Z,84.18
2023-02-07T04:50:20.858Z,82.74
2023-02-07T04:51:54.507Z,83.82
2023-02-07T04:53:39.804Z,83.24
2023-02-07T04:55:43.877Z,83.90
2023-02-07T04:57:47.086Z,83.29
2023-02-07T04:59:27.068Z,83.69
2023-02-07T05:04:01.103Z,83.80
2023-02-07T05:05:47.725Z,84.64
2023-02-07T05:11:58.462Z,84.39
2023-02-07T05:13:54.403Z,85.06
2023-02-07T05:18:03.932Z,84.53
2023-02-07T05:27:18.359Z,84.74
2023-02-07T05:28:51.375Z,84.29
2023-02-07T05:30:23.126Z,84.55
2023-02-07T05:32:13.543Z,85.35
2023-02-07T05:33:45.117Z,84.63
2023-02-07T05:35:16.916Z,84.30
2023-02-07T05:36:48.517Z,83.62
2023-02-07T05:38:20.427Z,84.43
2023-02-07T05:39:52.033Z,84.32
2023-02-07T05:41:23.675Z,84.04
2023-02-07T05:42:55.362Z,83.65
2023-02-07T05:44:28.364Z,83.92
2023-02-07T05:45:59.968Z,83.95
2023-02-07T05:47:31.664Z,85.41
2023-02-07T05:49:03.462Z,84.75
2023-02-07T05:50:35.133Z,84.94
2023-02-07T05:52:06.780Z,84.38
2023-02-07T05:53:38.908Z,84.93
2023-02-07T05:55:11.401Z,83.71
2023-02-07T05:56:43.067Z,85.18
2023-02-07T05:58:14.668Z,85.20
2023-02-07T05:59:47.731Z,84.66
2023-02-07T06:01:19.346Z,84.82
2023-02-07T06:02:51.104Z,85.12
2023-02-07T06:04:22.887Z,85.12
2023-02-07T06:05:54.578Z,83.52
2023-02-07T06:07:26.210Z,83.97
2023-02-07T06:08:57.887Z,85.22
2023-02-07T06:10:29.665Z,83.58
2023-02-07T06:12:03.136Z,84.16
2023-02-07T06:13:36.639Z,84.61
2023-02-07T06:15:10.257Z,84.47
2023-02-07T06:16:43.821Z,84.30
2023-02-07T06:18:15.496Z,84.10
2023-02-07T06:19:47.155Z,84.09
2023-02-07T06:21:18.911Z,84.66
2023-02-07T06:22:50.582Z,84.86
2023-02-07T06:24:22.511Z,84.33
2023-02-07T06:25:54.469Z,84.39
2023-02-07T06:27:26.226Z,83.36
2023-02-07T06:28:57.914Z,85.42
2023-02-07T06:30:30.917Z,84.96
2023-02-07T06:32:02.705Z,85.26
2023-02-07T06:33:34.530Z,86.02
2023-02-07T06:35:07.045Z,85.09
2023-02-07T06:36:40.924Z,85.88
2023-02-07T06:38:12.619Z,85.18
2023-02-07T06:39:44.328Z,85.83
2023-02-07T06:41:15.998Z,85.94
2023-02-07T06:42:47.728Z,86.62
2023-02-07T06:44:19.546Z,86.40
2023-02-07T06:45:52.679Z,86.06
2023-02-07T06:47:24.290Z,86.25
2023-02-07T06:48:55.995Z,85.41
2023-02-07T06:50:27.622Z,86.76
2023-02-07T06:51:59.269Z,85.41
2023-02-07T06:53:30.888Z,85.49
2023-02-07T06:55:02.525Z,85.10
2023-02-07T06:56:34.143Z,84.69
2023-02-07T06:58:06.060Z,85.55
2023-02-07T06:59:38.198Z,84.75
2023-02-07T07:01:11.419Z,84.69
2023-02-07T07:02:43.064Z,84.57
2023-02-07T07:04:14.743Z,84.04
2023-02-07T07:05:46.460Z,84.16
2023-02-07T07:07:18.120Z,84.18
2023-02-07T07:08:51.759Z,85.15
2023-02-07T07:10:23.671Z,84.27
2023-02-07T07:11:55.367Z,85.27
2023-02-07T07:13:27.081Z,84.62
2023-02-07T07:14:58.686Z,84.41
2023-02-07T07:16:31.670Z,84.99
2023-02-07T07:18:03.618Z,84.64
2023-02-07T07:19:35.258Z,84.60
2023-02-07T07:21:09.112Z,84.82
2023-02-07T07:22:40.835Z,84.89
2023-02-07T07:24:12.459Z,85.18
2023-02-07T07:25:44.091Z,85.64
2023-02-07T07:27:15.762Z,86.63
2023-02-07T07:28:47.379Z,85.73
2023-02-07T07:30:19.097Z,85.38
2023-02-07T07:31:52.198Z,85.62
2023-02-07T07:33:23.855Z,86.46
2023-02-07T07:34:55.651Z,85.92
2023-02-07T07:36:27.331Z,86.10
2023-02-07T07:37:59.160Z,85.64
2023-02-07T07:39:30.840Z,85.15
2023-02-07T07:41:02.542Z,84.74
2023-02-07T07:42:35.451Z,84.43
2023-02-07T07:44:07.080Z,85.85
2023-02-07T07:45:38.712Z,85.94
2023-02-07T07:47:12.991Z,84.38
2023-02-07T07:48:44.599Z,84.72
2023-02-07T07:50:16.265Z,84.60
2023-02-07T07:51:47.999Z,84.40
2023-02-07T07:53:20.205Z,84.28
2023-02-07T07:54:51.862Z,83.68
2023-02-07T07:56:23.494Z,83.72
2023-02-07T07:57:55.178Z,84.84
2023-02-07T07:59:26.941Z,85.63
2023-02-07T08:00:58.692Z,84.63
2023-02-07T08:02:31.726Z,84.28
2023-02-07T08:04:03.968Z,84.74
2023-02-07T08:05:35.760Z,84.21
2023-02-07T08:07:07.423Z,84.37
2023-02-07T08:08:39.082Z,83.85
2023-02-07T08:10:10.715Z,84.91
2023-02-07T08:11:43.674Z,84.12
2023-02-07T08:13:16.830Z,84.57
2023-02-07T08:14:48.599Z,84.16
2023-02-07T08:16:20.533Z,84.17
2023-02-07T08:17:53.638Z,83.80
2023-02-07T08:19:25.321Z,84.23
2023-02-07T08:20:57.023Z,83.05
2023-02-07T08:22:28.912Z,84.26
2023-02-07T08:24:00.712Z,83.31
2023-02-07T08:25:32.443Z,83.42
2023-02-07T08:27:04.366Z,82.68
2023-02-07T08:28:36.149Z,83.10
2023-02-07T08:30:09.167Z,83.82
2023-02-07T08:31:40.906Z,83.64
2023-02-07T08:33:14.231Z,82.88
2023-02-07T08:34:45.943Z,83.06
2023-02-07T08:36:17.643Z,82.96
2023-02-07T08:37:50.276Z,83.11
2023-02-07T08:39:22.010Z,82.36
2023-02-07T08:40:53.664Z,82.59
2023-02-07T08:42:25.360Z,82.87
2023-02-07T08:43:57.123Z,82.62
2023-02-07T08:45:28.955Z,82.59
2023-02-07T08:47:00.705Z,83.90
2023-02-07T08:48:33.802Z,82.92
2023-02-07T08:50:06.683Z,82.16
2023-02-07T08:51:38.867Z,81.98
2023-02-07T08:53:10.555Z,81.57
2023-02-07T08:54:42.300Z,81.17
2023-02-07T08:56:14.069Z,82.23
2023-02-07T08:57:45.703Z,82.35
2023-02-07T08:59:17.453Z,82.13
2023-02-07T09:00:49.177Z,82.29
2023-02-07T09:02:21.338Z,81.93
2023-02-07T09:03:56.675Z,82.04
2023-02-07T09:05:28.693Z,81.34
2023-02-07T09:07:00.589Z,82.53
2023-02-07T09:08:32.492Z,81.47
2023-02-07T09:10:04.943Z,81.27
2023-02-07T09:11:39.925Z,81.41
2023-02-07T09:13:11.683Z,81.86
2023-02-07T09:14:43.584Z,81.46
2023-02-07T09:16:15.705Z,80.77
2023-02-07T09:17:47.494Z,81.90
2023-02-07T09:19:20.522Z,80.69
2023-02-07T09:20:52.431Z,82.31
2023-02-07T09:22:27.458Z,81.70
2023-02-07T09:23:59.490Z,79.83
2023-02-07T09:25:31.273Z,80.22
2023-02-07T09:27:03.262Z,80.57
2023-02-07T09:28:35.976Z,80.41
2023-02-07T09:30:08.381Z,80.04
2023-02-07T09:31:40.150Z,79.84
2023-02-07T09:33:12.121Z,80.93
2023-02-07T09:34:45.237Z,81.58
2023-02-07T09:36:20.294Z,80.62
2023-02-07T09:37:53.024Z,80.29
2023-02-07T09:39:24.762Z,80.32
2023-02-07T09:40:57.974Z,81.09
2023-02-07T09:42:35.157Z,79.81
2023-02-07T09:44:13.208Z,78.91
2023-02-07T09:45:46.058Z,79.20
2023-02-07T09:47:18.657Z,79.74
2023-02-07T09:48:52.146Z,80.72
2023-02-07T09:50:27.415Z,79.53
2023-02-07T09:51:59.539Z,79.81
2023-02-07T09:53:34.699Z,79.76
2023-02-07T09:55:06.759Z,78.83
2023-02-07T09:56:38.499Z,78.56
2023-02-07T09:58:13.774Z,79.54
2023-02-07T09:59:49.823Z,78.78
2023-02-07T10:01:22.790Z,78.22
2023-02-07T10:02:57.781Z,78.30
2023-02-07T10:04:32.758Z,78.38
2023-02-07T10:06:17.884Z,78.14
2023-02-07T10:07:50.130Z,79.33
2023-02-07T10:09:24.133Z,78.27
2023-02-07T10:11:04.355Z,78.29
2023-02-07T10:13:01.407Z,78.75
2023-02-07T10:14:52.757Z,78.47
2023-02-07T10:16:33.435Z,78.66
2023-02-07T10:18:22.640Z,78.11
2023-02-07T10:19:57.504Z,77.75
2023-02-07T10:21:32.287Z,76.76
2023-02-07T10:23:13.572Z,77.73
2023-02-07T10:25:08.888Z,78.06
2023-02-07T10:26:42.949Z,78.25
2023-02-07T10:28:35.905Z,78.95
2023-02-07T10:30:10.665Z,78.65
2023-02-07T10:31:44.502Z,77.90
2023-02-07T10:33:17.218Z,77.90
2023-02-07T10:34:50.118Z,78.01
2023-02-07T10:36:23.168Z,77.51
2023-02-07T10:37:57.081Z,77.87
2023-02-07T10:39:30.045Z,78.05
2023-02-07T10:41:03.059Z,78.16
2023-02-07T10:42:36.527Z,77.50
2023-02-07T10:44:11.590Z,77.63
2023-02-07T10:45:43.362Z,77.14
2023-02-07T10:47:16.641Z,76.70
2023-02-07T10:48:48.563Z,78.32
2023-02-07T10:50:29.695Z,77.37
2023-02-07T10:52:03.401Z,76.88
2023-02-07T10:53:54.184Z,77.70
2023-02-07T10:55:38.098Z,76.50
2023-02-07T10:57:14.636Z,77.40
2023-02-07T10:58:46.320Z,77.85
2023-02-07T11:00:23.246Z,77.49
2023-02-07T11:01:55.015Z,76.71
2023-02-07T11:03:26.889Z,77.62
2023-02-07T11:04:59.254Z,76.73
2023-02-07T11:06:32.092Z,77.26
2023-02-07T11:08:04.932Z,76.21
2023-02-07T11:09:38.028Z,76.84
2023-02-07T11:11:25.455Z,75.38
2023-02-07T11:12:57.912Z,77.68
2023-02-07T11:14:31.153Z,77.11
2023-02-07T11:16:07.876Z,76.64
2023-02-07T11:17:39.996Z,76.91
2023-02-07T11:19:17.227Z,75.75
2023-02-07T11:20:49.076Z,75.85
2023-02-07T11:22:21.439Z,76.00
2023-02-07T11:23:55.774Z,75.73
2023-02-07T11:25:29.571Z,74.73
2023-02-07T11:27:02.370Z,75.49
2023-02-07T11:28:34.383Z,76.28
2023-02-07T11:30:07.819Z,76.61
2023-02-07T11:31:39.582Z,76.55
2023-02-07T11:33:16.934Z,76.65
2023-02-07T11:34:49.515Z,76.31
2023-02-07T11:36:23.431Z,73.10
2023-02-07T11:38:03.631Z,75.16
2023-02-07T11:39:36.362Z,73.24
2023-02-07T11:41:20.058Z,74.78
2023-02-07T11:42:58.839Z,75.29
2023-02-07T11:44:30.865Z,74.97
2023-02-07T11:46:06.023Z,75.13
2023-02-07T11:47:38.405Z,75.76
2023-02-07T11:49:20.257Z,75.04
2023-02-07T11:50:53.352Z,74.54
2023-02-07T11:52:27.754Z,74.74
2023-02-07T11:54:00.742Z,74.89
2023-02-07T11:55:35.664Z,74.91
2023-02-07T11:57:11.807Z,74.26
2023-02-07T11:58:47.416Z,74.44
2023-02-07T12:00:21.217Z,73.92
2023-02-07T12:01:54.206Z,75.70
2023-02-07T12:03:26.802Z,76.91
2023-02-07T12:05:10.098Z,75.40
2023-02-07T12:06:42.522Z,76.78
2023-02-07T12:08:15.985Z,77.20
2023-02-07T12:09:49.353Z,75.99
2023-02-07T12:11:22.922Z,75.04
2023-02-07T12:12:57.688Z,75.71
2023-02-07T12:14:32.820Z,75.53
2023-02-07T12:16:07.852Z,74.01
2023-02-07T12:17:41.470Z,75.36
2023-02-07T12:19:15.738Z,76.98
2023-02-07T12:20:50.528Z,74.49
2023-02-07T12:22:23.790Z,74.67
2023-02-07T12:23:56.856Z,74.97
2023-02-07T12:25:30.085Z,75.18
2023-02-07T12:27:05.241Z,76.23
2023-02-07T12:28:40.734Z,74.41
2023-02-07T12:30:22.349Z,74.53
2023-02-07T12:32:04.838Z,75.42
2023-02-07T12:33:41.425Z,74.26
2023-02-07T12:35:16.549Z,75.02
2023-02-07T12:36:50.136Z,75.42
2023-02-07T12:38:23.864Z,76.68
2023-02-07T12:39:59.664Z,74.50
2023-02-07T12:41:34.172Z,75.61
2023-02-07T12:43:08.602Z,75.10
2023-02-07T12:44:47.091Z,74.31
2023-02-07T12:46:23.356Z,75.69
2023-02-07T12:47:58.294Z,74.33
2023-02-07T12:49:38.849Z,74.68
2023-02-07T12:51:17.604Z,74.95
2023-02-07T12:52:54.840Z,74.60
2023-02-07T12:54:35.158Z,75.75
2023-02-07T12:56:14.428Z,74.16
2023-02-07T12:57:59.932Z,73.38
2023-02-07T12:59:40.510Z,75.79
2023-02-07T13:01:16.031Z,72.24
2023-02-07T13:02:55.651Z,72.54
2023-02-07T13:04:36.484Z,72.12
2023-02-07T13:06:11.662Z,74.63
2023-02-07T13:07:48.293Z,71.78
2023-02-07T13:09:22.080Z,71.11
2023-02-07T13:10:57.553Z,70.78
2023-02-07T13:12:30.579Z,73.03
2023-02-07T13:14:10.274Z,71.94
2023-02-07T13:15:44.880Z,72.76
2023-02-07T13:17:29.092Z,72.24
2023-02-07T13:19:04.272Z,70.26
2023-02-07T13:20:47.745Z,71.42
2023-02-07T13:22:23.976Z,71.19
2023-02-07T13:23:58.420Z,71.16
2023-02-07T13:25:31.075Z,70.10
2023-02-07T13:27:05.533Z,71.18
2023-02-07T13:28:40.576Z,70.23
2023-02-07T13:30:13.894Z,68.05
2023-02-07T13:31:46.781Z,70.10
2023-02-07T13:33:26.093Z,67.83
2023-02-07T13:34:58.503Z,69.32
2023-02-07T13:36:32.365Z,69.38
2023-02-07T13:38:07.242Z,68.89
2023-02-07T13:39:43.104Z,67.02
2023-02-07T13:41:17.329Z,69.54
2023-02-07T13:42:50.548Z,67.92
2023-02-07T13:44:25.225Z,68.48
2023-02-07T13:46:00.845Z,69.81
2023-02-07T13:47:47.686Z,69.41
2023-02-07T13:49:23.792Z,68.71
2023-02-07T13:51:00.832Z,68.59
2023-02-07T13:52:34.783Z,68.74
2023-02-07T13:54:10.414Z,69.43
2023-02-07T13:55:42.237Z,68.20
2023-02-07T13:57:39.860Z,68.00
2023-02-07T13:59:39.148Z,66.45
2023-02-07T14:01:15.729Z,67.76
2023-02-07T14:02:48.484Z,66.74
2023-02-07T14:04:21.850Z,65.38
2023-02-07T14:05:53.557Z,68.74
2023-02-07T14:07:29.795Z,65.02
2023-02-07T14:09:02.813Z,67.45
2023-02-07T14:10:47.390Z,65.91
2023-02-07T14:12:20.993Z,66.87
2023-02-07T14:13:55.902Z,63.80
2023-02-07T14:15:55.839Z,65.71
2023-02-07T14:17:58.792Z,64.57
2023-02-07T14:19:51.831Z,63.15
2023-02-07T14:21:30.090Z,66.46
2023-02-07T14:23:11.184Z,63.26
2023-02-07T14:24:48.676Z,63.88
2023-02-07T14:26:53.886Z,62.96
2023-02-07T14:28:32.735Z,66.85
2023-02-07T14:30:19.308Z,66.64
2023-02-07T14:31:51.445Z,62.83
2023-02-07T14:33:23.303Z,64.23
2023-02-07T14:35:00.916Z,65.62
2023-02-07T14:36:32.637Z,63.41
2023-02-07T14:38:20.788Z,62.60
2023-02-07T14:39:52.453Z,63.72
2023-02-07T14:41:27.062Z,65.93
2023-02-07T14:43:00.192Z,64.67
2023-02-07T14:44:34.055Z,66.68
2023-02-07T14:47:57.193Z,69.74
2023-02-07T14:49:31.592Z,65.65
2023-02-07T14:51:04.984Z,66.24
2023-02-07T14:52:36.967Z,67.21
2023-02-07T14:54:13.425Z,67.73
2023-02-07T14:55:48.038Z,68.08
2023-02-07T14:57:25.749Z,69.82
2023-02-07T14:58:57.730Z,70.34
2023-02-07T15:00:32.022Z,70.22
2023-02-07T15:02:32.582Z,71.21
2023-02-07T15:04:05.484Z,72.27
2023-02-07T15:05:37.926Z,73.37
2023-02-07T15:07:11.813Z,72.87
2023-02-07T15:08:55.185Z,72.95
2023-02-07T15:10:27.899Z,73.02
2023-02-07T15:12:12.687Z,72.06
2023-02-07T15:13:45.365Z,71.51
2023-02-07T15:15:18.971Z,72.72
2023-02-07T15:16:50.704Z,72.77
2023-02-07T15:18:25.626Z,71.96
2023-02-07T15:19:57.347Z,73.77
2023-02-07T15:21:31.967Z,73.71
2023-02-07T15:23:07.439Z,73.32
2023-02-07T15:24:50.956Z,73.50
2023-02-07T15:26:23.522Z,73.99
2023-02-07T15:28:02.168Z,73.86
2023-02-07T15:29:34.659Z,74.62
2023-02-07T15:31:07.187Z,75.39
2023-02-07T15:32:42.642Z,74.66
2023-02-07T15:34:17.561Z,74.43
2023-02-07T15:35:49.205Z,73.36
2023-02-07T15:37:21.742Z,74.47
2023-02-07T15:38:57.569Z,73.11
2023-02-07T15:40:29.204Z,73.46
2023-02-07T15:42:00.846Z,74.02
2023-02-07T15:43:33.511Z,75.66
2023-02-07T15:45:10.660Z,76.21
2023-02-07T15:46:48.652Z,76.30
2023-02-07T15:48:20.318Z,75.98
2023-02-07T15:49:58.121Z,76.33
2023-02-07T15:51:30.994Z,76.86
2023-02-07T15:53:03.567Z,76.08
2023-02-07T15:54:38.768Z,76.46
2023-02-07T15:56:14.917Z,76.24
2023-02-07T15:57:46.761Z,76.70
2023-02-07T15:59:24.132Z,77.93
2023-02-07T16:01:01.439Z,77.13
2023-02-07T16:02:34.680Z,76.59
2023-02-07T16:04:09.528Z,76.76
2023-02-07T16:05:41.868Z,77.07
2023-02-07T16:07:14.697Z,78.62
2023-02-07T16:08:46.931Z,78.23
2023-02-07T16:10:33.151Z,78.67
2023-02-07T16:12:37.434Z,78.00
2023-02-07T16:14:19.370Z,77.51
2023-02-07T16:15:55.681Z,76.86
2023-02-07T16:17:42.482Z,77.88
2023-02-07T16:19:16.641Z,77.99
2023-02-07T16:20:48.766Z,78.10
2023-02-07T16:22:31.353Z,78.04
2023-02-07T16:24:05.564Z,79.03
2023-02-07T16:25:41.719Z,79.62
2023-02-07T16:27:16.222Z,79.42
2023-02-07T16:28:49.820Z,78.38
2023-02-07T16:30:27.026Z,79.91
2023-02-07T16:31:58.745Z,79.45
2023-02-07T16:33:30.467Z,78.99
2023-02-07T16:35:03.183Z,80.11
2023-02-07T16:36:35.458Z,79.79
2023-02-07T16:38:07.189Z,80.60
2023-02-07T16:39:39.491Z,80.08
2023-02-07T16:41:20.289Z,80.69
2023-02-07T16:43:01.698Z,81.07
2023-02-07T16:44:34.418Z,81.03
2023-02-07T16:46:44.025Z,81.39
2023-02-07T16:48:16.012Z,80.96
2023-02-07T16:49:47.730Z,81.90
2023-02-07T16:51:19.372Z,81.08
2023-02-07T16:52:51.653Z,80.71
2023-02-07T16:54:23.353Z,80.97
2023-02-07T16:55:55.661Z,80.05
2023-02-07T16:57:28.683Z,80.51
2023-02-07T16:59:00.324Z,80.23
2023-02-07T17:00:32.067Z,80.02
2023-02-07T17:02:06.280Z,80.35
2023-02-07T17:03:38.171Z,79.50
2023-02-07T17:05:09.947Z,82.48
2023-02-07T17:06:42.472Z,82.05
2023-02-07T17:08:14.545Z,81.27
2023-02-07T17:09:49.333Z,82.39
2023-02-07T17:11:25.183Z,83.15
2023-02-07T17:12:58.214Z,82.94
2023-02-07T17:14:29.847Z,81.73
2023-02-07T17:16:01.594Z,82.45
2023-02-07T17:17:33.360Z,81.67
2023-02-07T17:19:10.335Z,82.47
2023-02-07T17:20:42.213Z,82.86
2023-02-07T17:22:14.498Z,83.04
2023-02-07T17:23:47.698Z,82.82
2023-02-07T17:25:19.856Z,83.31
2023-02-07T17:26:53.086Z,82.91
2023-02-07T17:28:26.191Z,82.69
2023-02-07T17:29:57.831Z,82.59
2023-02-07T17:31:29.574Z,82.84
2023-02-07T17:33:01.277Z,82.52
2023-02-07T17:34:32.904Z,83.43
2023-02-07T17:36:05.052Z,83.42
2023-02-07T17:37:36.814Z,82.60
2023-02-07T17:39:10.705Z,82.34
2023-02-07T17:40:42.711Z,82.40
2023-02-07T17:42:14.299Z,83.04
2023-02-07T17:43:47.288Z,83.86
2023-02-07T17:45:18.957Z,82.42
2023-02-07T17:46:50.642Z,83.16
2023-02-07T17:48:22.349Z,83.41
2023-02-07T17:49:53.994Z,82.51
2023-02-07T17:51:26.777Z,81.69
2023-02-07T17:52:58.634Z,84.15
2023-02-07T17:54:30.244Z,83.40
2023-02-07T17:56:01.821Z,83.02
2023-02-07T17:57:33.468Z,83.30
2023-02-07T17:59:06.973Z,83.23
2023-02-07T18:00:41.633Z,82.92
2023-02-07T18:02:13.526Z,83.12
2023-02-07T18:03:45.300Z,83.29
2023-02-07T18:05:17.940Z,82.82
2023-02-07T18:06:49.582Z,83.28
2023-02-07T18:08:21.206Z,82.91
2023-02-07T18:09:52.830Z,81.85
2023-02-07T18:11:24.569Z,83.20
2023-02-07T18:12:56.231Z,83.57
2023-02-07T18:14:30.302Z,83.16
2023-02-07T18:16:02.246Z,83.17
2023-02-07T18:17:33.958Z,82.99
2023-02-07T18:19:05.674Z,83.09
2023-02-07T18:20:37.479Z,81.82
2023-02-07T18:22:09.359Z,82.80
2023-02-07T18:23:42.897Z,83.60
2023-02-07T18:25:14.836Z,82.79
2023-02-07T18:26:47.156Z,83.50
2023-02-07T18:28:18.903Z,83.08
2023-02-07T18:29:52.020Z,81.56
2023-02-07T18:31:26.748Z,81.59
2023-02-07T18:32:58.796Z,82.91
2023-02-07T18:34:30.527Z,82.33
2023-02-07T18:36:02.164Z,82.31
2023-02-07T18:37:33.807Z,82.95
2023-02-07T18:39:05.475Z,83.10
2023-02-07T18:40:40.276Z,81.89
2023-02-07T18:42:13.746Z,82.67
2023-02-07T18:43:45.611Z,82.69
2023-02-07T18:45:21.501Z,84.23
2023-02-07T18:46:53.138Z,83.99
2023-02-07T18:48:24.785Z,83.19
2023-02-07T18:49:56.456Z,82.83
2023-02-07T18:51:28.373Z,82.43
2023-02-07T18:53:00.225Z,82.98
2023-02-07T18:54:31.836Z,83.33
2023-02-07T18:56:04.546Z,83.98
2023-02-07T18:57:36.270Z,83.33
2023-02-07T18:59:09.295Z,82.48
2023-02-07T19:00:43.376Z,83.97
2023-02-07T19:02:15.021Z,83.10
2023-02-07T19:03:48.309Z,82.83
2023-02-07T19:05:20.616Z,83.41
2023-02-07T19:06:52.998Z,82.69
2023-02-07T19:08:24.656Z,82.21
2023-02-07T19:09:56.299Z,82.64
2023-02-07T19:11:27.930Z,82.01
2023-02-07T19:12:59.579Z,82.03
2023-02-07T19:14:31.883Z,81.98
2023-02-07T19:16:05.913Z,81.50
2023-02-07T19:17:37.620Z,81.54
2023-02-07T19:19:09.271Z,81.87
2023-02-07T19:20:41.188Z,81.36
2023-02-07T19:22:13.074Z,81.79
2023-02-07T19:23:44.781Z,82.12
2023-02-07T19:25:16.568Z,82.00
2023-02-07T19:26:49.303Z,81.15
2023-02-07T19:28:21.119Z,80.72
2023-02-07T19:29:52.865Z,81.04
2023-02-07T19:31:29.107Z,80.91
2023-02-07T19:33:00.871Z,80.81
2023-02-07T19:34:32.618Z,81.30
2023-02-07T19:36:05.658Z,80.25
2023-02-07T19:37:37.270Z,80.41
2023-02-07T19:39:09.020Z,81.08
2023-02-07T19:40:41.049Z,81.17
2023-02-07T19:42:13.066Z,80.30
2023-02-07T19:43:44.738Z,79.85
2023-02-07T19:45:19.416Z,80.61
2023-02-07T19:46:52.414Z,80.30
2023-02-07T19:48:24.063Z,80.08
2023-02-07T19:49:55.697Z,79.75
2023-02-07T19:51:28.666Z,80.38
2023-02-07T19:53:00.316Z,80.44
2023-02-07T19:54:32.004Z,80.46
2023-02-07T19:56:04.842Z,80.63
2023-02-07T19:57:36.512Z,79.99
2023-02-07T19:59:08.709Z,80.25
2023-02-07T20:00:40.742Z,80.06
2023-02-07T20:02:14.873Z,79.42
2023-02-07T20:03:51.091Z,80.14
2023-02-07T20:05:22.836Z,79.49
2023-02-07T20:06:54.760Z,79.66
2023-02-07T20:08:26.687Z,79.82
2023-02-07T20:09:58.821Z,79.15
2023-02-07T20:11:30.556Z,79.71
2023-02-07T20:13:02.216Z,79.86
2023-02-07T20:14:33.867Z,78.82
2023-02-07T20:16:08.992Z,79.35
2023-02-07T20:17:42.049Z,78.31
2023-02-07T20:19:13.673Z,78.79
2023-02-07T20:20:47.960Z,79.57
2023-02-07T20:22:20.075Z,79.37
2023-02-07T20:23:52.373Z,78.16
2023-02-07T20:25:33.185Z,79.52
2023-02-07T20:27:04.826Z,78.52
2023-02-07T20:28:36.604Z,79.18
2023-02-07T20:30:09.207Z,79.13
2023-02-07T20:31:41.061Z,78.72
2023-02-07T20:33:16.705Z,78.76
2023-02-07T20:34:48.662Z,79.40
2023-02-07T20:36:20.706Z,79.78